Terminal Aerodrome Forecast
Issued by NWS Cleveland, OH

Home | Current Version | Previous Version | Text Only | Print | Product List | Glossary On
Versions: 1 2 3 4 5 6 7 8 9 10 11 12 13 14 15 16 17 18 19 20 21
227
FTUS41 KCLE 281732
TAFCAK
TAF
KCAK 281732Z 2818/0118 18012KT P6SM OVC070
     FM282200 19012G20KT P6SM OVC025
     FM010500 20015G25KT 4SM -SHRA OVC015 WS020/22050KT
     FM011100 21015G25KT 3SM -SHRA BR OVC008
      TEMPO 0113/0116 2SM TSRA OVC004CB=

USA.gov is the U.S. government's official web portal to all federal, state and local government web resources and services.